sensor_id;sensor_type;location;lat;lon;timestamp;pressure;altitude;pressure_sealevel;temperature;humidity
32320;BME280;19080;51.750;5.888;2022-12-18T00:01:16;102572.94;;;-5.69;100.00
32320;BME280;19080;51.750;5.888;2022-12-18T00:03:43;102560.28;;;-5.75;100.00
32320;BME280;19080;51.750;5.888;2022-12-18T00:06:13;102656.44;;;-5.14;100.00
32320;BME280;19080;51.750;5.888;2022-12-18T00:08:41;102549.00;;;-5.75;100.00
32320;BME280;19080;51.750;5.888;2022-12-18T00:11:11;102682.38;;;-5.06;100.00
32320;BME280;19080;51.750;5.888;2022-12-18T00:13:38;102648.81;;;-5.21;100.00
32320;BME280;19080;51.750;5.888;2022-12-18T00:16:07;102559.91;;;-5.62;100.00
32320;BME280;19080;51.750;5.888;2022-12-18T00:18:34;102652.16;;;-5.14;100.00
32320;BME280;19080;51.750;5.888;2022-12-18T00:21:04;102558.41;;;-5.60;100.00
32320;BME280;19080;51.750;5.888;2022-12-18T00:23:32;102669.91;;;-5.01;100.00
32320;BME280;19080;51.750;5.888;2022-12-18T00:26:01;102664.09;;;-5.07;100.00
32320;BME280;19080;51.750;5.888;2022-12-18T00:28:30;102570.25;;;-5.62;100.00
32320;BME280;19080;51.750;5.888;2022-12-18T00:31:07;102666.34;;;-5.10;100.00
32320;BME280;19080;51.750;5.888;2022-12-18T00:33:35;102662.69;;;-5.12;100.00
32320;BME280;19080;51.750;5.888;2022-12-18T00:36:09;102646.97;;;-5.22;100.00
32320;BME280;19080;51.750;5.888;2022-12-18T00:38:37;102545.78;;;-5.81;100.00
32320;BME280;19080;51.750;5.888;2022-12-18T00:41:07;102629.03;;;-5.37;100.00
32320;BME280;19080;51.750;5.888;2022-12-18T00:43:35;102640.06;;;-5.31;100.00
32320;BME280;19080;51.750;5.888;2022-12-18T00:46:02;102606.13;;;-5.49;100.00
32320;BME280;19080;51.750;5.888;2022-12-18T00:48:31;102670.69;;;-5.27;100.00
32320;BME280;19080;51.750;5.888;2022-12-18T00:50:57;102668.09;;;-5.27;100.00
32320;BME280;19080;51.750;5.888;2022-12-18T00:53:24;102559.25;;;-5.93;100.00
32320;BME280;19080;51.750;5.888;2022-12-18T00:55:51;102646.94;;;-5.47;100.00
32320;BME280;19080;51.750;5.888;2022-12-18T00:58:17;102620.66;;;-5.59;100.00
32320;BME280;19080;51.750;5.888;2022-12-18T01:00:44;102634.31;;;-5.44;100.00
32320;BME280;19080;51.750;5.888;2022-12-18T01:03:13;102509.06;;;-6.10;100.00
32320;BME280;19080;51.750;5.888;2022-12-18T01:05:42;102655.25;;;-5.34;100.00
32320;BME280;19080;51.750;5.888;2022-12-18T01:08:10;102660.31;;;-5.27;100.00
32320;BME280;19080;51.750;5.888;2022-12-18T01:10:40;102558.53;;;-5.83;100.00
32320;BME280;19080;51.750;5.888;2022-12-18T01:13:07;102652.34;;;-5.37;100.00
32320;BME280;19080;51.750;5.888;2022-12-18T01:15:33;102645.50;;;-5.36;100.00
32320;BME280;19080;51.750;5.888;2022-12-18T01:18:00;102635.88;;;-5.37;100.00
32320;BME280;19080;51.750;5.888;2022-12-18T01:20:26;102622.78;;;-5.39;100.00
32320;BME280;19080;51.750;5.888;2022-12-18T01:22:53;102620.63;;;-5.43;100.00
32320;BME280;19080;51.750;5.888;2022-12-18T01:25:19;102617.63;;;-5.39;100.00
32320;BME280;19080;51.750;5.888;2022-12-18T01:27:46;102654.00;;;-5.13;100.00
32320;BME280;19080;51.750;5.888;2022-12-18T01:30:12;102633.28;;;-5.21;100.00
32320;BME280;19080;51.750;5.888;2022-12-18T01:32:39;102661.59;;;-5.14;100.00
32320;BME280;19080;51.750;5.888;2022-12-18T01:35:06;102662.03;;;-5.18;100.00
32320;BME280;19080;51.750;5.888;2022-12-18T01:37:33;102654.72;;;-5.22;100.00
32320;BME280;19080;51.750;5.888;2022-12-18T01:39:59;102655.47;;;-5.23;100.00
32320;BME280;19080;51.750;5.888;2022-12-18T01:42:26;102660.66;;;-5.23;100.00
32320;BME280;19080;51.750;5.888;2022-12-18T01:47:47;102667.84;;;-5.37;100.00
32320;BME280;19080;51.750;5.888;2022-12-18T01:50:23;102649.59;;;-5.54;100.00
32320;BME280;19080;51.750;5.888;2022-12-18T01:52:55;102668.38;;;-5.48;100.00
32320;BME280;19080;51.750;5.888;2022-12-18T01:55:25;102666.22;;;-5.52;100.00
32320;BME280;19080;51.750;5.888;2022-12-18T01:57:54;102645.19;;;-5.71;100.00
32320;BME280;19080;51.750;5.888;2022-12-18T02:00:23;102612.69;;;-6.00;100.00
32320;BME280;19080;51.750;5.888;2022-12-18T02:02:51;102662.13;;;-5.66;100.00
32320;BME280;19080;51.750;5.888;2022-12-18T02:05:27;102559.75;;;-6.19;100.00
32320;BME280;19080;51.750;5.888;2022-12-18T02:08:10;102658.78;;;-5.65;100.00
32320;BME280;19080;51.750;5.888;2022-12-18T02:12:02;102656.13;;;-5.58;100.00
32320;BME280;19080;51.750;5.888;2022-12-18T02:16:44;102643.09;;;-5.66;100.00
32320;BME280;19080;51.750;5.888;2022-12-18T02:27:50;102608.41;;;-5.68;100.00
32320;BME280;19080;51.750;5.888;2022-12-18T02:30:19;102630.09;;;-5.59;100.00
32320;BME280;19080;51.750;5.888;2022-12-18T02:32:50;102623.72;;;-5.54;100.00
32320;BME280;19080;51.750;5.888;2022-12-18T02:35:23;102635.75;;;-5.54;100.00
32320;BME280;19080;51.750;5.888;2022-12-18T02:37:54;102642.44;;;-5.57;100.00
32320;BME280;19080;51.750;5.888;2022-12-18T02:40:23;102651.78;;;-5.50;100.00
32320;BME280;19080;51.750;5.888;2022-12-18T02:42:51;102512.25;;;-6.29;100.00
32320;BME280;19080;51.750;5.888;2022-12-18T02:45:19;102654.69;;;-5.47;100.00
32320;BME280;19080;51.750;5.888;2022-12-18T02:47:49;102645.34;;;-5.53;100.00
32320;BME280;19080;51.750;5.888;2022-12-18T02:50:35;102636.41;;;-5.48;100.00
32320;BME280;19080;51.750;5.888;2022-12-18T02:53:17;102647.34;;;-5.51;100.00
32320;BME280;19080;51.750;5.888;2022-12-18T03:01:50;102635.41;;;-5.58;100.00
32320;BME280;19080;51.750;5.888;2022-12-18T03:04:26;102628.25;;;-5.60;100.00
32320;BME280;19080;51.750;5.888;2022-12-18T03:06:57;102440.84;;;-6.60;100.00
32320;BME280;19080;51.750;5.888;2022-12-18T03:09:30;102609.91;;;-5.70;100.00
32320;BME280;19080;51.750;5.888;2022-12-18T03:12:49;102621.25;;;-5.61;100.00
32320;BME280;19080;51.750;5.888;2022-12-18T03:14:57;102623.81;;;-5.61;100.00
32320;BME280;19080;51.750;5.888;2022-12-18T03:17:27;102501.56;;;-6.16;100.00
32320;BME280;19080;51.750;5.888;2022-12-18T03:19:58;102571.69;;;-5.73;100.00
32320;BME280;19080;51.750;5.888;2022-12-18T03:22:32;102634.97;;;-5.38;100.00
32320;BME280;19080;51.750;5.888;2022-12-18T03:25:01;102506.31;;;-6.12;100.00
32320;BME280;19080;51.750;5.888;2022-12-18T03:27:31;102624.41;;;-5.48;100.00
32320;BME280;19080;51.750;5.888;2022-12-18T03:30:05;102634.72;;;-5.32;100.00
32320;BME280;19080;51.750;5.888;2022-12-18T03:32:48;102629.53;;;-5.32;100.00
32320;BME280;19080;51.750;5.888;2022-12-18T03:35:23;102497.63;;;-5.97;100.00
32320;BME280;19080;51.750;5.888;2022-12-18T03:37:50;102570.66;;;-5.50;100.00
32320;BME280;19080;51.750;5.888;2022-12-18T03:40:20;102606.72;;;-5.28;100.00
32320;BME280;19080;51.750;5.888;2022-12-18T03:42:56;102586.47;;;-5.32;100.00
32320;BME280;19080;51.750;5.888;2022-12-18T03:45:32;102608.31;;;-5.12;100.00
32320;BME280;19080;51.750;5.888;2022-12-18T03:48:05;102611.66;;;-5.13;100.00
32320;BME280;19080;51.750;5.888;2022-12-18T03:50:55;102590.03;;;-5.22;100.00
32320;BME280;19080;51.750;5.888;2022-12-18T03:56:13;102570.34;;;-5.29;100.00
32320;BME280;19080;51.750;5.888;2022-12-18T03:58:43;102572.75;;;-5.31;100.00
32320;BME280;19080;51.750;5.888;2022-12-18T04:01:16;102572.00;;;-5.30;100.00
32320;BME280;19080;51.750;5.888;2022-12-18T04:03:46;102587.28;;;-5.15;100.00
32320;BME280;19080;51.750;5.888;2022-12-18T04:06:17;102572.97;;;-5.20;100.00
32320;BME280;19080;51.750;5.888;2022-12-18T04:08:45;102573.97;;;-5.03;100.00
32320;BME280;19080;51.750;5.888;2022-12-18T04:11:16;102571.81;;;-5.07;100.00
32320;BME280;19080;51.750;5.888;2022-12-18T04:13:44;102540.53;;;-5.26;100.00
32320;BME280;19080;51.750;5.888;2022-12-18T04:16:21;102563.75;;;-5.01;100.00
32320;BME280;19080;51.750;5.888;2022-12-18T04:18:51;102550.94;;;-5.08;100.00
32320;BME280;19080;51.750;5.888;2022-12-18T04:21:19;102550.66;;;-5.03;100.00
32320;BME280;19080;51.750;5.888;2022-12-18T04:23:48;102537.56;;;-5.04;100.00
32320;BME280;19080;51.750;5.888;2022-12-18T04:26:16;102546.91;;;-4.89;100.00
32320;BME280;19080;51.750;5.888;2022-12-18T04:28:52;102429.09;;;-5.60;100.00
32320;BME280;19080;51.750;5.888;2022-12-18T04:31:18;102554.06;;;-4.95;100.00
32320;BME280;19080;51.750;5.888;2022-12-18T04:33:46;102553.34;;;-4.85;100.00
32320;BME280;19080;51.750;5.888;2022-12-18T04:36:13;102537.13;;;-5.00;100.00
32320;BME280;19080;51.750;5.888;2022-12-18T04:38:40;102544.03;;;-4.83;100.00
32320;BME280;19080;51.750;5.888;2022-12-18T04:41:11;102547.69;;;-4.90;100.00
32320;BME280;19080;51.750;5.888;2022-12-18T04:43:39;102369.03;;;-5.91;100.00
32320;BME280;19080;51.750;5.888;2022-12-18T04:46:07;102443.28;;;-5.48;100.00
32320;BME280;19080;51.750;5.888;2022-12-18T04:48:35;102562.19;;;-4.83;100.00
32320;BME280;19080;51.750;5.888;2022-12-18T04:51:02;102543.53;;;-4.97;100.00
32320;BME280;19080;51.750;5.888;2022-12-18T04:53:29;102530.88;;;-5.02;100.00
32320;BME280;19080;51.750;5.888;2022-12-18T04:56:06;102554.81;;;-4.96;100.00
32320;BME280;19080;51.750;5.888;2022-12-18T04:58:35;102472.06;;;-5.45;100.00
32320;BME280;19080;51.750;5.888;2022-12-18T05:01:03;102543.81;;;-5.02;100.00
32320;BME280;19080;51.750;5.888;2022-12-18T05:03:30;102553.84;;;-5.05;100.00
32320;BME280;19080;51.750;5.888;2022-12-18T05:05:57;102553.28;;;-4.94;100.00
32320;BME280;19080;51.750;5.888;2022-12-18T05:08:23;102439.09;;;-5.63;100.00
32320;BME280;19080;51.750;5.888;2022-12-18T05:11:00;102466.25;;;-5.51;100.00
32320;BME280;19080;51.750;5.888;2022-12-18T05:13:28;102595.78;;;-4.92;100.00
32320;BME280;19080;51.750;5.888;2022-12-18T05:15:55;102565.97;;;-5.21;100.00
32320;BME280;19080;51.750;5.888;2022-12-18T05:18:22;102585.13;;;-5.19;100.00
32320;BME280;19080;51.750;5.888;2022-12-18T05:20:50;102586.69;;;-5.21;100.00
32320;BME280;19080;51.750;5.888;2022-12-18T05:23:17;102625.41;;;-5.06;100.00
32320;BME280;19080;51.750;5.888;2022-12-18T05:25:54;102620.41;;;-5.04;100.00
32320;BME280;19080;51.750;5.888;2022-12-18T05:28:23;102631.94;;;-5.09;100.00
32320;BME280;19080;51.750;5.888;2022-12-18T05:30:51;102495.25;;;-5.86;100.00
32320;BME280;19080;51.750;5.888;2022-12-18T05:33:18;102512.00;;;-5.83;100.00
32320;BME280;19080;51.750;5.888;2022-12-18T05:35:51;102600.31;;;-5.31;100.00
32320;BME280;19080;51.750;5.888;2022-12-18T05:38:19;102611.59;;;-5.31;100.00
32320;BME280;19080;51.750;5.888;2022-12-18T05:40:47;102591.47;;;-5.33;100.00
32320;BME280;19080;51.750;5.888;2022-12-18T05:43:14;102609.81;;;-5.23;100.00
32320;BME280;19080;51.750;5.888;2022-12-18T05:45:46;102619.59;;;-5.12;100.00
32320;BME280;19080;51.750;5.888;2022-12-18T05:48:13;102610.16;;;-5.11;100.00
32320;BME280;19080;51.750;5.888;2022-12-18T05:50:42;102605.03;;;-5.03;100.00
32320;BME280;19080;51.750;5.888;2022-12-18T05:53:10;102598.03;;;-5.04;100.00
32320;BME280;19080;51.750;5.888;2022-12-18T05:55:38;102459.16;;;-5.69;100.00
32320;BME280;19080;51.750;5.888;2022-12-18T05:58:07;102516.03;;;-5.20;100.00
32320;BME280;19080;51.750;5.888;2022-12-18T06:00:36;102557.75;;;-4.84;100.00
32320;BME280;19080;51.750;5.888;2022-12-18T06:03:07;102474.00;;;-5.18;100.00
32320;BME280;19080;51.750;5.888;2022-12-18T06:05:39;102591.91;;;-4.38;100.00
32320;BME280;19080;51.750;5.888;2022-12-18T06:08:07;102487.53;;;-4.79;100.00
32320;BME280;19080;51.750;5.888;2022-12-18T06:10:33;102450.59;;;-5.02;100.00
32320;BME280;19080;51.750;5.888;2022-12-18T06:13:00;102453.81;;;-4.96;100.00
32320;BME280;19080;51.750;5.888;2022-12-18T06:15:27;102560.66;;;-4.31;100.00
32320;BME280;19080;51.750;5.888;2022-12-18T06:17:54;102557.59;;;-4.36;100.00
32320;BME280;19080;51.750;5.888;2022-12-18T06:20:20;102569.97;;;-4.33;100.00
32320;BME280;19080;51.750;5.888;2022-12-18T06:22:47;102557.16;;;-4.32;100.00
32320;BME280;19080;51.750;5.888;2022-12-18T06:25:15;102397.44;;;-5.07;100.00
32320;BME280;19080;51.750;5.888;2022-12-18T06:27:41;102549.72;;;-4.20;100.00
32320;BME280;19080;51.750;5.888;2022-12-18T06:30:09;102565.13;;;-4.13;100.00
32320;BME280;19080;51.750;5.888;2022-12-18T06:32:36;102559.34;;;-4.02;100.00
32320;BME280;19080;51.750;5.888;2022-12-18T06:35:03;102550.81;;;-3.92;100.00
32320;BME280;19080;51.750;5.888;2022-12-18T06:37:30;102551.41;;;-3.86;100.00
32320;BME280;19080;51.750;5.888;2022-12-18T06:39:57;102554.16;;;-3.84;100.00
32320;BME280;19080;51.750;5.888;2022-12-18T06:42:24;102558.13;;;-3.79;100.00
32320;BME280;19080;51.750;5.888;2022-12-18T06:44:51;102506.56;;;-4.11;100.00
32320;BME280;19080;51.750;5.888;2022-12-18T06:47:18;102422.06;;;-4.52;100.00
32320;BME280;19080;51.750;5.888;2022-12-18T06:49:44;102517.84;;;-4.02;100.00
32320;BME280;19080;51.750;5.888;2022-12-18T06:52:11;102514.81;;;-3.98;100.00
32320;BME280;19080;51.750;5.888;2022-12-18T06:54:37;102541.97;;;-3.85;100.00
32320;BME280;19080;51.750;5.888;2022-12-18T06:57:04;102537.06;;;-3.91;100.00
32320;BME280;19080;51.750;5.888;2022-12-18T06:59:31;102412.00;;;-4.66;100.00
32320;BME280;19080;51.750;5.888;2022-12-18T07:01:57;102534.03;;;-4.04;100.00
32320;BME280;19080;51.750;5.888;2022-12-18T07:04:29;102529.13;;;-4.10;100.00
32320;BME280;19080;51.750;5.888;2022-12-18T07:06:56;102536.16;;;-4.09;100.00
32320;BME280;19080;51.750;5.888;2022-12-18T07:09:23;102517.69;;;-4.29;100.00
32320;BME280;19080;51.750;5.888;2022-12-18T07:11:49;102490.97;;;-4.45;100.00
32320;BME280;19080;51.750;5.888;2022-12-18T07:14:16;102399.91;;;-5.00;100.00
32320;BME280;19080;51.750;5.888;2022-12-18T07:16:42;102534.75;;;-4.31;100.00
32320;BME280;19080;51.750;5.888;2022-12-18T07:19:09;102508.97;;;-4.47;100.00
32320;BME280;19080;51.750;5.888;2022-12-18T07:21:36;102512.16;;;-4.49;100.00
32320;BME280;19080;51.750;5.888;2022-12-18T07:24:02;102544.03;;;-4.42;100.00
32320;BME280;19080;51.750;5.888;2022-12-18T07:26:29;102533.78;;;-4.49;100.00
32320;BME280;19080;51.750;5.888;2022-12-18T07:28:56;102489.38;;;-4.78;100.00
32320;BME280;19080;51.750;5.888;2022-12-18T07:31:24;102537.00;;;-4.43;100.00
32320;BME280;19080;51.750;5.888;2022-12-18T07:33:51;102415.56;;;-5.07;100.00
32320;BME280;19080;51.750;5.888;2022-12-18T07:36:19;102524.97;;;-4.42;100.00
32320;BME280;19080;51.750;5.888;2022-12-18T07:38:49;102508.66;;;-4.50;100.00
32320;BME280;19080;51.750;5.888;2022-12-18T07:41:18;102495.53;;;-4.51;100.00
32320;BME280;19080;51.750;5.888;2022-12-18T07:43:45;102443.34;;;-4.80;100.00
32320;BME280;19080;51.750;5.888;2022-12-18T07:46:13;102406.47;;;-4.95;100.00
32320;BME280;19080;51.750;5.888;2022-12-18T07:48:41;102409.84;;;-4.79;100.00
32320;BME280;19080;51.750;5.888;2022-12-18T07:51:11;102497.72;;;-4.21;100.00
32320;BME280;19080;51.750;5.888;2022-12-18T07:53:38;102478.50;;;-4.15;100.00
32320;BME280;19080;51.750;5.888;2022-12-18T07:56:10;102476.66;;;-4.07;100.00
32320;BME280;19080;51.750;5.888;2022-12-18T07:58:55;102345.72;;;-4.55;100.00
32320;BME280;19080;51.750;5.888;2022-12-18T08:01:22;102460.16;;;-3.73;100.00
32320;BME280;19080;51.750;5.888;2022-12-18T08:03:48;102454.34;;;-3.62;100.00
32320;BME280;19080;51.750;5.888;2022-12-18T08:06:18;102415.13;;;-3.74;100.00
32320;BME280;19080;51.750;5.888;2022-12-18T08:08:51;102439.66;;;-3.53;100.00
32320;BME280;19080;51.750;5.888;2022-12-18T08:11:17;102452.72;;;-3.43;100.00
32320;BME280;19080;51.750;5.888;2022-12-18T08:13:44;102479.06;;;-3.21;100.00
32320;BME280;19080;51.750;5.888;2022-12-18T08:16:11;102453.91;;;-3.31;100.00
32320;BME280;19080;51.750;5.888;2022-12-18T08:18:38;102460.75;;;-3.22;100.00
32320;BME280;19080;51.750;5.888;2022-12-18T08:21:12;102353.31;;;-3.69;100.00
32320;BME280;19080;51.750;5.888;2022-12-18T08:23:39;102384.91;;;-3.37;100.00
32320;BME280;19080;51.750;5.888;2022-12-18T08:26:09;102348.06;;;-3.52;100.00
32320;BME280;19080;51.750;5.888;2022-12-18T08:28:36;102436.91;;;-2.91;100.00
32320;BME280;19080;51.750;5.888;2022-12-18T08:31:03;102427.44;;;-2.90;100.00
32320;BME280;19080;51.750;5.888;2022-12-18T08:33:30;102356.69;;;-3.15;100.00
32320;BME280;19080;51.750;5.888;2022-12-18T08:36:01;102468.13;;;-2.45;100.00
32320;BME280;19080;51.750;5.888;2022-12-18T08:38:27;102328.91;;;-3.16;100.00
32320;BME280;19080;51.750;5.888;2022-12-18T08:41:02;102335.03;;;-2.97;100.00
32320;BME280;19080;51.750;5.888;2022-12-18T08:43:34;102441.91;;;-2.38;100.00
32320;BME280;19080;51.750;5.888;2022-12-18T08:46:21;102463.78;;;-2.17;100.00
32320;BME280;19080;51.750;5.888;2022-12-18T08:48:50;102465.41;;;-2.09;100.00
32320;BME280;19080;51.750;5.888;2022-12-18T08:51:17;102468.56;;;-2.03;100.00
32320;BME280;19080;51.750;5.888;2022-12-18T08:53:44;102472.34;;;-1.99;100.00
32320;BME280;19080;51.750;5.888;2022-12-18T08:56:11;102335.25;;;-2.67;100.00
32320;BME280;19080;51.750;5.888;2022-12-18T08:58:38;102405.50;;;-2.19;100.00
32320;BME280;19080;51.750;5.888;2022-12-18T09:01:07;102346.97;;;-2.43;100.00
32320;BME280;19080;51.750;5.888;2022-12-18T09:03:35;102464.19;;;-1.65;100.00
32320;BME280;19080;51.750;5.888;2022-12-18T09:06:02;102454.19;;;-1.60;100.00
32320;BME280;19080;51.750;5.888;2022-12-18T09:08:29;102444.09;;;-1.47;100.00
32320;BME280;19080;51.750;5.888;2022-12-18T09:10:55;102453.41;;;-1.20;100.00
32320;BME280;19080;51.750;5.888;2022-12-18T09:13:22;102317.75;;;-1.82;100.00
32320;BME280;19080;51.750;5.888;2022-12-18T09:15:51;102426.22;;;-1.13;100.00
32320;BME280;19080;51.750;5.888;2022-12-18T09:18:19;102438.75;;;-0.99;100.00
32320;BME280;19080;51.750;5.888;2022-12-18T09:20:47;102442.03;;;-0.91;100.00
32320;BME280;19080;51.750;5.888;2022-12-18T09:23:14;102442.94;;;-0.91;100.00
32320;BME280;19080;51.750;5.888;2022-12-18T09:25:40;102441.00;;;-0.73;100.00
32320;BME280;19080;51.750;5.888;2022-12-18T09:28:14;102428.09;;;-0.72;100.00
32320;BME280;19080;51.750;5.888;2022-12-18T09:30:43;102365.00;;;-0.98;100.00
32320;BME280;19080;51.750;5.888;2022-12-18T09:33:11;102341.94;;;-1.14;100.00
32320;BME280;19080;51.750;5.888;2022-12-18T09:35:38;102461.75;;;-0.54;100.00
32320;BME280;19080;51.750;5.888;2022-12-18T09:38:05;102378.03;;;-0.98;100.00
32320;BME280;19080;51.750;5.888;2022-12-18T09:40:35;102449.34;;;-0.47;100.00
32320;BME280;19080;51.750;5.888;2022-12-18T09:43:04;102454.44;;;-0.38;100.00
32320;BME280;19080;51.750;5.888;2022-12-18T09:45:43;102460.44;;;-0.29;100.00
32320;BME280;19080;51.750;5.888;2022-12-18T09:48:30;102425.22;;;-0.34;100.00
32320;BME280;19080;51.750;5.888;2022-12-18T09:51:03;102417.78;;;-0.29;100.00
32320;BME280;19080;51.750;5.888;2022-12-18T09:53:35;102419.97;;;-0.24;100.00
32320;BME280;19080;51.750;5.888;2022-12-18T09:56:04;102286.28;;;-0.94;100.00
32320;BME280;19080;51.750;5.888;2022-12-18T09:58:45;102424.41;;;-0.13;100.00
32320;BME280;19080;51.750;5.888;2022-12-18T10:01:23;102410.19;;;-0.16;100.00
32320;BME280;19080;51.750;5.888;2022-12-18T10:03:56;102395.06;;;-0.20;100.00
32320;BME280;19080;51.750;5.888;2022-12-18T10:08:54;102397.84;;;0.03;100.00
32320;BME280;19080;51.750;5.888;2022-12-18T10:11:32;102406.00;;;0.18;100.00
32320;BME280;19080;51.750;5.888;2022-12-18T10:19:46;102370.28;;;0.60;100.00
32320;BME280;19080;51.750;5.888;2022-12-18T10:25:22;102402.00;;;0.87;100.00
32320;BME280;19080;51.750;5.888;2022-12-18T10:27:54;102301.22;;;0.35;100.00
32320;BME280;19080;51.750;5.888;2022-12-18T10:30:23;102380.63;;;0.81;100.00
32320;BME280;19080;51.750;5.888;2022-12-18T10:32:51;102359.53;;;0.68;100.00
32320;BME280;19080;51.750;5.888;2022-12-18T10:35:21;102399.09;;;0.94;100.00
32320;BME280;19080;51.750;5.888;2022-12-18T10:38:20;102373.31;;;0.77;100.00
32320;BME280;19080;51.750;5.888;2022-12-18T10:40:58;102394.97;;;0.86;100.00
32320;BME280;19080;51.750;5.888;2022-12-18T10:43:28;102404.94;;;0.80;100.00
32320;BME280;19080;51.750;5.888;2022-12-18T10:46:00;102400.63;;;0.80;100.00
32320;BME280;19080;51.750;5.888;2022-12-18T10:48:27;102375.69;;;0.74;100.00
32320;BME280;19080;51.750;5.888;2022-12-18T10:50:55;102366.16;;;0.74;100.00
32320;BME280;19080;51.750;5.888;2022-12-18T10:53:40;102355.22;;;0.68;100.00
32320;BME280;19080;51.750;5.888;2022-12-18T10:56:08;102361.03;;;0.76;100.00
32320;BME280;19080;51.750;5.888;2022-12-18T10:58:37;102363.09;;;0.80;100.00
32320;BME280;19080;51.750;5.888;2022-12-18T11:01:11;102259.97;;;0.31;100.00
32320;BME280;19080;51.750;5.888;2022-12-18T11:08:36;102340.84;;;0.85;100.00
32320;BME280;19080;51.750;5.888;2022-12-18T11:11:07;102247.94;;;0.33;100.00
32320;BME280;19080;51.750;5.888;2022-12-18T11:16:43;102334.16;;;0.88;100.00
32320;BME280;19080;51.750;5.888;2022-12-18T11:19:37;102311.31;;;0.86;100.00
32320;BME280;19080;51.750;5.888;2022-12-18T11:22:25;102313.59;;;0.93;100.00
32320;BME280;19080;51.750;5.888;2022-12-18T11:24:59;102333.78;;;1.06;100.00
32320;BME280;19080;51.750;5.888;2022-12-18T11:27:51;102300.06;;;0.87;100.00
32320;BME280;19080;51.750;5.888;2022-12-18T11:30:28;102213.06;;;0.54;100.00
32320;BME280;19080;51.750;5.888;2022-12-18T11:33:20;102307.75;;;1.19;100.00
32320;BME280;19080;51.750;5.888;2022-12-18T11:35:51;102296.50;;;1.20;100.00
32320;BME280;19080;51.750;5.888;2022-12-18T11:38:21;102303.69;;;1.34;100.00
32320;BME280;19080;51.750;5.888;2022-12-18T11:41:03;102292.44;;;1.35;100.00
32320;BME280;19080;51.750;5.888;2022-12-18T11:43:37;102137.84;;;0.50;100.00
32320;BME280;19080;51.750;5.888;2022-12-18T11:46:08;102302.91;;;1.47;100.00
32320;BME280;19080;51.750;5.888;2022-12-18T11:48:48;102302.91;;;1.47;100.00
32320;BME280;19080;51.750;5.888;2022-12-18T11:51:28;102299.94;;;1.42;100.00
32320;BME280;19080;51.750;5.888;2022-12-18T11:53:59;102298.00;;;1.40;100.00
32320;BME280;19080;51.750;5.888;2022-12-18T11:56:35;102212.47;;;0.92;100.00
32320;BME280;19080;51.750;5.888;2022-12-18T11:59:42;102303.94;;;1.49;100.00
32320;BME280;19080;51.750;5.888;2022-12-18T12:08:07;102296.88;;;1.48;100.00
32320;BME280;19080;51.750;5.888;2022-12-18T12:10:41;102283.22;;;1.52;100.00
32320;BME280;19080;51.750;5.888;2022-12-18T12:16:17;102244.22;;;1.43;100.00
32320;BME280;19080;51.750;5.888;2022-12-18T12:19:02;102266.41;;;1.48;100.00
32320;BME280;19080;51.750;5.888;2022-12-18T12:21:39;102268.56;;;1.42;100.00
32320;BME280;19080;51.750;5.888;2022-12-18T12:24:47;102265.25;;;1.45;100.00
32320;BME280;19080;51.750;5.888;2022-12-18T12:30:38;102254.44;;;1.40;100.00
32320;BME280;19080;51.750;5.888;2022-12-18T12:33:18;102255.25;;;1.39;100.00
32320;BME280;19080;51.750;5.888;2022-12-18T12:36:08;102261.38;;;1.40;100.00
32320;BME280;19080;51.750;5.888;2022-12-18T12:38:42;102254.34;;;1.39;100.00
32320;BME280;19080;51.750;5.888;2022-12-18T12:41:21;102228.84;;;1.24;100.00
32320;BME280;19080;51.750;5.888;2022-12-18T12:44:15;102134.94;;;0.81;100.00
32320;BME280;19080;51.750;5.888;2022-12-18T12:46:46;102230.78;;;1.39;100.00
32320;BME280;19080;51.750;5.888;2022-12-18T12:49:17;102133.34;;;0.83;100.00
32320;BME280;19080;51.750;5.888;2022-12-18T12:52:12;102235.22;;;1.40;100.00
32320;BME280;19080;51.750;5.888;2022-12-18T12:54:42;102215.66;;;1.35;100.00
32320;BME280;19080;51.750;5.888;2022-12-18T12:57:31;102122.66;;;0.80;100.00
32320;BME280;19080;51.750;5.888;2022-12-18T13:00:15;102214.53;;;1.43;100.00
32320;BME280;19080;51.750;5.888;2022-12-18T13:05:49;102203.03;;;1.41;100.00
32320;BME280;19080;51.750;5.888;2022-12-18T13:08:31;102205.66;;;1.41;100.00
32320;BME280;19080;51.750;5.888;2022-12-18T13:11:02;102174.28;;;1.29;100.00
32320;BME280;19080;51.750;5.888;2022-12-18T13:13:52;102158.81;;;1.32;100.00
32320;BME280;19080;51.750;5.888;2022-12-18T13:16:20;102188.38;;;1.43;100.00
32320;BME280;19080;51.750;5.888;2022-12-18T13:18:55;102185.28;;;1.37;100.00
32320;BME280;19080;51.750;5.888;2022-12-18T13:21:28;102144.50;;;1.15;100.00
32320;BME280;19080;51.750;5.888;2022-12-18T13:23:56;102175.19;;;1.29;100.00
32320;BME280;19080;51.750;5.888;2022-12-18T13:26:34;102162.69;;;1.25;100.00
32320;BME280;19080;51.750;5.888;2022-12-18T13:29:02;102154.72;;;1.24;100.00
32320;BME280;19080;51.750;5.888;2022-12-18T13:36:57;102167.44;;;1.31;100.00
32320;BME280;19080;51.750;5.888;2022-12-18T13:39:43;102168.13;;;1.28;100.00
32320;BME280;19080;51.750;5.888;2022-12-18T13:44:56;102131.63;;;1.18;100.00
32320;BME280;19080;51.750;5.888;2022-12-18T13:47:31;102066.75;;;0.78;100.00
32320;BME280;19080;51.750;5.888;2022-12-18T13:49:59;102144.16;;;1.22;100.00
32320;BME280;19080;51.750;5.888;2022-12-18T13:52:36;102165.41;;;1.27;100.00
32320;BME280;19080;51.750;5.888;2022-12-18T13:55:07;102137.44;;;1.14;100.00
32320;BME280;19080;51.750;5.888;2022-12-18T13:57:41;102167.13;;;1.26;100.00
32320;BME280;19080;51.750;5.888;2022-12-18T14:00:26;102161.09;;;1.27;100.00
32320;BME280;19080;51.750;5.888;2022-12-18T14:02:55;102150.97;;;1.20;100.00
32320;BME280;19080;51.750;5.888;2022-12-18T14:05:23;102162.56;;;1.24;100.00
32320;BME280;19080;51.750;5.888;2022-12-18T14:07:50;102019.75;;;0.54;100.00
32320;BME280;19080;51.750;5.888;2022-12-18T14:10:18;102139.38;;;1.17;100.00